sensor_id;sensor_type;location;lat;lon;timestamp;pressure;altitude;pressure_sealevel;temperature;humidity
20027;BME280;10174;42.688;23.344;2023-04-21T00:01:10;94929.78;;;9.35;77.46
20027;BME280;10174;42.688;23.344;2023-04-21T00:03:37;94915.81;;;9.28;77.77
20027;BME280;10174;42.688;23.344;2023-04-21T00:06:03;94861.03;;;8.83;78.18
20027;BME280;10174;42.688;23.344;2023-04-21T00:08:30;94903.44;;;9.06;78.49
20027;BME280;10174;42.688;23.344;2023-04-21T00:10:56;94850.84;;;8.80;78.28
20027;BME280;10174;42.688;23.344;2023-04-21T00:13:21;94900.19;;;8.94;78.56
20027;BME280;10174;42.688;23.344;2023-04-21T00:15:48;94865.84;;;8.76;78.72
20027;BME280;10174;42.688;23.344;2023-04-21T00:18:13;94899.63;;;8.87;79.25
20027;BME280;10174;42.688;23.344;2023-04-21T00:20:39;94908.22;;;8.89;79.34
20027;BME280;10174;42.688;23.344;2023-04-21T00:23:04;94924.84;;;8.96;79.80
20027;BME280;10174;42.688;23.344;2023-04-21T00:25:30;94842.91;;;8.42;79.39
20027;BME280;10174;42.688;23.344;2023-04-21T00:27:55;94896.34;;;8.74;79.79
20027;BME280;10174;42.688;23.344;2023-04-21T00:30:21;94913.53;;;8.79;79.90
20027;BME280;10174;42.688;23.344;2023-04-21T00:32:46;94906.50;;;8.67;80.52
20027;BME280;10174;42.688;23.344;2023-04-21T00:35:12;94900.63;;;8.70;79.70
20027;BME280;10174;42.688;23.344;2023-04-21T00:37:37;94929.06;;;8.77;80.19
20027;BME280;10174;42.688;23.344;2023-04-21T00:40:05;94938.16;;;8.76;80.87
20027;BME280;10174;42.688;23.344;2023-04-21T00:42:30;94916.72;;;8.70;80.93
20027;BME280;10174;42.688;23.344;2023-04-21T00:44:55;94870.72;;;8.36;80.85
20027;BME280;10174;42.688;23.344;2023-04-21T00:47:21;94833.16;;;8.20;80.03
20027;BME280;10174;42.688;23.344;2023-04-21T00:49:47;94871.28;;;8.43;79.50
20027;BME280;10174;42.688;23.344;2023-04-21T00:52:13;94925.81;;;8.69;79.85
20027;BME280;10174;42.688;23.344;2023-04-21T00:54:41;94910.47;;;8.60;80.54
20027;BME280;10174;42.688;23.344;2023-04-21T00:57:07;94909.75;;;8.74;80.50
20027;BME280;10174;42.688;23.344;2023-04-21T00:59:32;94883.94;;;8.53;80.57
20027;BME280;10174;42.688;23.344;2023-04-21T01:01:58;94909.59;;;8.49;80.49
20027;BME280;10174;42.688;23.344;2023-04-21T01:04:24;94905.88;;;8.50;80.89
20027;BME280;10174;42.688;23.344;2023-04-21T01:06:50;94840.28;;;8.05;80.77
20027;BME280;10174;42.688;23.344;2023-04-21T01:09:15;94905.78;;;8.39;80.94
20027;BME280;10174;42.688;23.344;2023-04-21T01:11:41;94903.88;;;8.35;81.24
20027;BME280;10174;42.688;23.344;2023-04-21T01:14:06;94891.75;;;8.17;81.58
20027;BME280;10174;42.688;23.344;2023-04-21T01:16:32;94794.50;;;7.53;82.63
20027;BME280;10174;42.688;23.344;2023-04-21T01:18:58;94871.25;;;7.95;82.41
20027;BME280;10174;42.688;23.344;2023-04-21T01:21:24;94908.81;;;8.11;83.21
20027;BME280;10174;42.688;23.344;2023-04-21T01:23:51;94851.28;;;7.71;83.64
20027;BME280;10174;42.688;23.344;2023-04-21T01:26:19;94905.22;;;7.95;83.90
20027;BME280;10174;42.688;23.344;2023-04-21T01:28:45;94876.16;;;7.71;84.07
20027;BME280;10174;42.688;23.344;2023-04-21T01:31:16;94888.22;;;7.74;85.17
20027;BME280;10174;42.688;23.344;2023-04-21T01:33:42;94860.31;;;7.64;85.64
20027;BME280;10174;42.688;23.344;2023-04-21T01:36:08;94905.47;;;7.93;85.50
20027;BME280;10174;42.688;23.344;2023-04-21T01:38:38;94908.41;;;7.92;84.69
20027;BME280;10174;42.688;23.344;2023-04-21T01:41:04;94895.25;;;7.85;83.73
20027;BME280;10174;42.688;23.344;2023-04-21T01:43:29;94862.50;;;7.67;83.37
20027;BME280;10174;42.688;23.344;2023-04-21T01:45:55;94855.50;;;7.61;83.13
20027;BME280;10174;42.688;23.344;2023-04-21T01:48:20;94748.00;;;6.89;83.60
20027;BME280;10174;42.688;23.344;2023-04-21T01:50:46;94892.75;;;7.73;83.57
20027;BME280;10174;42.688;23.344;2023-04-21T01:53:11;94901.16;;;7.87;83.53
20027;BME280;10174;42.688;23.344;2023-04-21T01:55:36;94888.22;;;7.74;84.14
20027;BME280;10174;42.688;23.344;2023-04-21T01:58:02;94877.38;;;7.58;84.09
20027;BME280;10174;42.688;23.344;2023-04-21T02:00:28;94871.78;;;7.60;83.76
20027;BME280;10174;42.688;23.344;2023-04-21T02:02:53;94901.03;;;7.72;84.51
20027;BME280;10174;42.688;23.344;2023-04-21T02:05:19;94898.91;;;7.74;84.07
20027;BME280;10174;42.688;23.344;2023-04-21T02:07:44;94903.69;;;7.66;84.25
20027;BME280;10174;42.688;23.344;2023-04-21T02:10:10;94909.44;;;7.53;85.27
20027;BME280;10174;42.688;23.344;2023-04-21T02:12:36;94878.22;;;7.31;85.15
20027;BME280;10174;42.688;23.344;2023-04-21T02:15:02;94848.09;;;7.09;85.50
20027;BME280;10174;42.688;23.344;2023-04-21T02:17:27;94831.41;;;6.97;85.75
20027;BME280;10174;42.688;23.344;2023-04-21T02:19:53;94851.16;;;7.23;85.17
20027;BME280;10174;42.688;23.344;2023-04-21T02:22:18;94837.00;;;6.95;85.96
20027;BME280;10174;42.688;23.344;2023-04-21T02:24:43;94769.19;;;6.47;85.91
20027;BME280;10174;42.688;23.344;2023-04-21T02:27:09;94870.53;;;7.13;86.38
20027;BME280;10174;42.688;23.344;2023-04-21T02:29:34;94867.78;;;7.03;86.31
20027;BME280;10174;42.688;23.344;2023-04-21T02:32:00;94837.63;;;6.80;87.50
20027;BME280;10174;42.688;23.344;2023-04-21T02:34:25;94897.22;;;7.08;87.16
20027;BME280;10174;42.688;23.344;2023-04-21T02:36:50;94844.47;;;6.71;87.70
20027;BME280;10174;42.688;23.344;2023-04-21T02:39:16;94803.25;;;6.62;87.15
20027;BME280;10174;42.688;23.344;2023-04-21T02:41:41;94882.72;;;7.26;87.00
20027;BME280;10174;42.688;23.344;2023-04-21T02:44:07;94877.72;;;7.35;86.74
20027;BME280;10174;42.688;23.344;2023-04-21T02:46:32;94883.00;;;7.57;85.53
20027;BME280;10174;42.688;23.344;2023-04-21T02:48:57;94881.81;;;7.75;84.32
20027;BME280;10174;42.688;23.344;2023-04-21T02:51:23;94858.84;;;7.79;83.84
20027;BME280;10174;42.688;23.344;2023-04-21T02:53:48;94833.06;;;7.67;83.51
20027;BME280;10174;42.688;23.344;2023-04-21T02:56:14;94890.13;;;8.16;83.18
20027;BME280;10174;42.688;23.344;2023-04-21T02:58:39;94875.22;;;8.30;82.97
20027;BME280;10174;42.688;23.344;2023-04-21T03:01:05;94781.03;;;7.80;81.66
20027;BME280;10174;42.688;23.344;2023-04-21T03:03:31;94862.78;;;8.51;80.40
20027;BME280;10174;42.688;23.344;2023-04-21T03:06:01;94888.88;;;8.82;79.73
20027;BME280;10174;42.688;23.344;2023-04-21T03:08:27;94873.84;;;8.70;80.28
20027;BME280;10174;42.688;23.344;2023-04-21T03:10:52;94868.81;;;8.84;79.97
20027;BME280;10174;42.688;23.344;2023-04-21T03:13:18;94892.03;;;8.68;80.74
20027;BME280;10174;42.688;23.344;2023-04-21T03:15:43;94869.34;;;8.33;80.10
20027;BME280;10174;42.688;23.344;2023-04-21T03:18:09;94872.28;;;8.32;80.27
20027;BME280;10174;42.688;23.344;2023-04-21T03:20:35;94888.13;;;8.38;81.02
20027;BME280;10174;42.688;23.344;2023-04-21T03:23:00;94878.41;;;8.27;80.94
20027;BME280;10174;42.688;23.344;2023-04-21T03:25:26;94870.81;;;8.14;81.15
20027;BME280;10174;42.688;23.344;2023-04-21T03:27:52;94578.50;;;6.27;80.88
20027;BME280;10174;42.688;23.344;2023-04-21T03:30:18;94869.16;;;8.02;80.68
20027;BME280;10174;42.688;23.344;2023-04-21T03:32:44;94898.31;;;8.42;80.53
20027;BME280;10174;42.688;23.344;2023-04-21T03:35:09;94920.97;;;8.66;79.54
20027;BME280;10174;42.688;23.344;2023-04-21T03:37:35;94898.47;;;8.67;78.63
20027;BME280;10174;42.688;23.344;2023-04-21T03:40:00;94913.84;;;8.93;77.96
20027;BME280;10174;42.688;23.344;2023-04-21T03:42:26;94857.75;;;8.60;78.11
20027;BME280;10174;42.688;23.344;2023-04-21T03:44:53;94870.66;;;8.73;77.96
20027;BME280;10174;42.688;23.344;2023-04-21T03:47:19;94877.66;;;8.90;76.91
20027;BME280;10174;42.688;23.344;2023-04-21T03:49:44;94918.75;;;9.16;77.17
20027;BME280;10174;42.688;23.344;2023-04-21T03:52:10;94905.06;;;9.07;77.18
20027;BME280;10174;42.688;23.344;2023-04-21T03:54:36;94897.56;;;9.04;75.98
20027;BME280;10174;42.688;23.344;2023-04-21T03:57:01;94913.44;;;9.32;76.04
20027;BME280;10174;42.688;23.344;2023-04-21T03:59:27;94878.25;;;9.07;75.49
20027;BME280;10174;42.688;23.344;2023-04-21T04:01:52;94901.38;;;9.29;74.44
20027;BME280;10174;42.688;23.344;2023-04-21T04:04:18;94925.56;;;9.55;74.40
20027;BME280;10174;42.688;23.344;2023-04-21T04:06:43;94890.13;;;9.42;73.42
20027;BME280;10174;42.688;23.344;2023-04-21T04:09:09;94893.91;;;9.52;72.77
20027;BME280;10174;42.688;23.344;2023-04-21T04:11:34;94886.94;;;9.61;72.14
20027;BME280;10174;42.688;23.344;2023-04-21T04:14:00;94918.59;;;9.95;71.00
20027;BME280;10174;42.688;23.344;2023-04-21T04:16:25;94904.09;;;9.91;70.72
20027;BME280;10174;42.688;23.344;2023-04-21T04:18:52;94937.13;;;10.22;70.51
20027;BME280;10174;42.688;23.344;2023-04-21T04:21:18;94944.38;;;10.27;69.63
20027;BME280;10174;42.688;23.344;2023-04-21T04:23:43;94898.22;;;9.99;69.31
20027;BME280;10174;42.688;23.344;2023-04-21T04:26:09;94927.72;;;10.14;69.31
20027;BME280;10174;42.688;23.344;2023-04-21T04:28:35;94830.09;;;9.59;69.12
20027;BME280;10174;42.688;23.344;2023-04-21T04:31:01;94948.41;;;10.40;69.14
20027;BME280;10174;42.688;23.344;2023-04-21T04:33:27;94893.38;;;10.11;68.90
20027;BME280;10174;42.688;23.344;2023-04-21T04:35:52;94915.13;;;10.41;68.17
20027;BME280;10174;42.688;23.344;2023-04-21T04:38:18;94936.59;;;10.41;68.18
20027;BME280;10174;42.688;23.344;2023-04-21T04:40:44;94926.66;;;10.41;67.62
20027;BME280;10174;42.688;23.344;2023-04-21T04:43:09;94956.94;;;10.78;67.17
20027;BME280;10174;42.688;23.344;2023-04-21T04:45:36;94965.56;;;10.69;67.90
20027;BME280;10174;42.688;23.344;2023-04-21T04:48:03;94964.47;;;10.76;67.36
20027;BME280;10174;42.688;23.344;2023-04-21T04:50:28;94958.78;;;10.93;67.11
20027;BME280;10174;42.688;23.344;2023-04-21T04:52:54;94967.06;;;11.12;66.54
20027;BME280;10174;42.688;23.344;2023-04-21T04:55:20;94965.97;;;11.18;66.47
20027;BME280;10174;42.688;23.344;2023-04-21T04:57:46;94978.56;;;11.28;65.83
20027;BME280;10174;42.688;23.344;2023-04-21T05:00:12;94944.75;;;11.06;66.93
20027;BME280;10174;42.688;23.344;2023-04-21T05:02:38;94875.34;;;10.43;68.55
20027;BME280;10174;42.688;23.344;2023-04-21T05:05:05;94947.56;;;10.65;69.42
20027;BME280;10174;42.688;23.344;2023-04-21T05:07:32;94943.03;;;10.55;70.16
20027;BME280;10174;42.688;23.344;2023-04-21T05:09:58;94951.31;;;10.64;69.81
20027;BME280;10174;42.688;23.344;2023-04-21T05:12:23;94957.78;;;10.68;70.09
20027;BME280;10174;42.688;23.344;2023-04-21T05:14:48;94970.13;;;10.69;69.83
20027;BME280;10174;42.688;23.344;2023-04-21T05:17:14;94944.09;;;10.59;70.16
20027;BME280;10174;42.688;23.344;2023-04-21T05:19:39;94939.78;;;10.74;69.46
20027;BME280;10174;42.688;23.344;2023-04-21T05:22:04;94958.81;;;10.82;69.60
20027;BME280;10174;42.688;23.344;2023-04-21T05:24:32;94948.06;;;10.82;69.51
20027;BME280;10174;42.688;23.344;2023-04-21T05:26:57;94958.25;;;10.91;69.94
20027;BME280;10174;42.688;23.344;2023-04-21T05:29:22;94967.88;;;11.07;69.03
20027;BME280;10174;42.688;23.344;2023-04-21T05:31:48;94927.06;;;10.90;68.82
20027;BME280;10174;42.688;23.344;2023-04-21T05:34:13;94855.66;;;10.78;67.50
20027;BME280;10174;42.688;23.344;2023-04-21T05:36:42;94965.38;;;11.81;64.77
20027;BME280;10174;42.688;23.344;2023-04-21T05:39:08;94849.06;;;11.05;64.52
20027;BME280;10174;42.688;23.344;2023-04-21T05:41:33;94934.22;;;11.70;63.66
20027;BME280;10174;42.688;23.344;2023-04-21T05:43:59;94980.88;;;12.00;63.62
20027;BME280;10174;42.688;23.344;2023-04-21T05:46:24;94962.75;;;12.16;62.95
20027;BME280;10174;42.688;23.344;2023-04-21T05:48:50;94841.19;;;11.64;61.14
20027;BME280;10174;42.688;23.344;2023-04-21T05:51:15;94896.78;;;11.73;62.23
20027;BME280;10174;42.688;23.344;2023-04-21T05:53:43;94939.44;;;12.01;62.15
20027;BME280;10174;42.688;23.344;2023-04-21T05:56:09;94962.34;;;11.88;63.62
20027;BME280;10174;42.688;23.344;2023-04-21T05:58:36;94929.31;;;11.82;63.50
20027;BME280;10174;42.688;23.344;2023-04-21T06:01:01;94964.44;;;12.06;63.17
20027;BME280;10174;42.688;23.344;2023-04-21T06:03:30;94939.16;;;11.97;63.13
20027;BME280;10174;42.688;23.344;2023-04-21T06:05:56;94923.47;;;11.70;63.33
20027;BME280;10174;42.688;23.344;2023-04-21T06:08:22;94959.13;;;11.96;63.98
20027;BME280;10174;42.688;23.344;2023-04-21T06:10:48;94853.13;;;11.02;64.81
20027;BME280;10174;42.688;23.344;2023-04-21T06:13:13;94895.47;;;11.26;65.26
20027;BME280;10174;42.688;23.344;2023-04-21T06:15:39;94955.78;;;11.65;65.32
20027;BME280;10174;42.688;23.344;2023-04-21T06:18:04;94944.44;;;11.68;65.52
20027;BME280;10174;42.688;23.344;2023-04-21T06:20:30;94952.41;;;11.83;65.58
20027;BME280;10174;42.688;23.344;2023-04-21T06:22:55;94934.84;;;11.56;65.38
20027;BME280;10174;42.688;23.344;2023-04-21T06:25:21;94942.81;;;11.72;65.59
20027;BME280;10174;42.688;23.344;2023-04-21T06:27:46;94836.72;;;11.04;65.48
20027;BME280;10174;42.688;23.344;2023-04-21T06:30:12;94948.72;;;11.74;66.04
20027;BME280;10174;42.688;23.344;2023-04-21T06:32:38;94923.97;;;11.72;66.01
20027;BME280;10174;42.688;23.344;2023-04-21T06:35:04;94956.53;;;12.15;64.95
20027;BME280;10174;42.688;23.344;2023-04-21T06:37:29;94938.84;;;12.38;64.17
20027;BME280;10174;42.688;23.344;2023-04-21T06:39:54;94946.78;;;12.83;62.96
20027;BME280;10174;42.688;23.344;2023-04-21T06:42:20;94934.66;;;13.05;62.29
20027;BME280;10174;42.688;23.344;2023-04-21T06:44:45;94962.78;;;12.98;62.38
20027;BME280;10174;42.688;23.344;2023-04-21T06:47:11;94937.75;;;12.69;62.62
20027;BME280;10174;42.688;23.344;2023-04-21T06:49:36;94934.00;;;12.06;64.49
20027;BME280;10174;42.688;23.344;2023-04-21T06:52:02;94849.88;;;11.50;65.02
20027;BME280;10174;42.688;23.344;2023-04-21T06:54:28;94920.06;;;11.99;65.33
20027;BME280;10174;42.688;23.344;2023-04-21T06:56:54;94941.34;;;12.29;65.00
20027;BME280;10174;42.688;23.344;2023-04-21T06:59:19;94935.78;;;12.50;64.19
20027;BME280;10174;42.688;23.344;2023-04-21T07:01:45;94885.78;;;12.39;64.09
20027;BME280;10174;42.688;23.344;2023-04-21T07:04:13;94933.03;;;12.55;64.10
20027;BME280;10174;42.688;23.344;2023-04-21T07:06:38;94916.09;;;13.22;61.95
20027;BME280;10174;42.688;23.344;2023-04-21T07:09:04;94934.94;;;13.70;59.83
20027;BME280;10174;42.688;23.344;2023-04-21T07:11:30;94932.38;;;14.64;56.98
20027;BME280;10174;42.688;23.344;2023-04-21T07:13:55;94932.94;;;16.23;52.61
20027;BME280;10174;42.688;23.344;2023-04-21T07:16:21;94948.25;;;16.50;51.36
20027;BME280;10174;42.688;23.344;2023-04-21T07:18:48;94936.63;;;17.12;49.73
20027;BME280;10174;42.688;23.344;2023-04-21T07:21:14;94912.84;;;16.24;50.88
20027;BME280;10174;42.688;23.344;2023-04-21T07:23:39;94807.22;;;16.72;48.78
20027;BME280;10174;42.688;23.344;2023-04-21T07:26:04;94943.44;;;17.41;48.68
20027;BME280;10174;42.688;23.344;2023-04-21T07:28:30;94880.94;;;15.98;51.12
20027;BME280;10174;42.688;23.344;2023-04-21T07:30:55;94926.00;;;16.62;49.95
20027;BME280;10174;42.688;23.344;2023-04-21T07:33:21;94930.31;;;17.25;48.81
20027;BME280;10174;42.688;23.344;2023-04-21T07:35:46;94939.97;;;17.67;47.79
20027;BME280;10174;42.688;23.344;2023-04-21T07:38:12;94881.34;;;16.90;48.82
20027;BME280;10174;42.688;23.344;2023-04-21T07:40:37;94874.34;;;16.67;49.27
20027;BME280;10174;42.688;23.344;2023-04-21T07:43:03;94936.50;;;15.59;52.67
20027;BME280;10174;42.688;23.344;2023-04-21T07:45:28;94847.75;;;14.50;54.56
20027;BME280;10174;42.688;23.344;2023-04-21T07:47:53;94942.53;;;14.72;54.85
20027;BME280;10174;42.688;23.344;2023-04-21T07:50:19;94915.16;;;14.60;54.63
20027;BME280;10174;42.688;23.344;2023-04-21T07:52:45;94945.81;;;14.36;55.88
20027;BME280;10174;42.688;23.344;2023-04-21T07:55:12;94938.03;;;15.09;54.24
20027;BME280;10174;42.688;23.344;2023-04-21T07:57:37;94946.66;;;16.49;50.91
20027;BME280;10174;42.688;23.344;2023-04-21T08:00:05;94915.13;;;16.08;50.65
20027;BME280;10174;42.688;23.344;2023-04-21T08:02:31;94919.44;;;16.09;51.39
20027;BME280;10174;42.688;23.344;2023-04-21T08:04:56;94924.16;;;15.66;52.17
20027;BME280;10174;42.688;23.344;2023-04-21T08:07:22;94941.75;;;15.41;53.53
20027;BME280;10174;42.688;23.344;2023-04-21T08:09:47;94811.34;;;14.75;53.38
20027;BME280;10174;42.688;23.344;2023-04-21T08:12:12;94929.84;;;15.93;51.66
20027;BME280;10174;42.688;23.344;2023-04-21T08:14:38;94932.13;;;16.76;49.94
20027;BME280;10174;42.688;23.344;2023-04-21T08:17:04;94935.09;;;16.66;50.34
20027;BME280;10174;42.688;23.344;2023-04-21T08:19:30;94938.84;;;18.73;46.05
20027;BME280;10174;42.688;23.344;2023-04-21T08:21:55;94935.22;;;20.05;42.75
20027;BME280;10174;42.688;23.344;2023-04-21T08:24:22;94885.91;;;20.10;41.16
20027;BME280;10174;42.688;23.344;2023-04-21T08:26:47;94932.19;;;20.40;41.37
20027;BME280;10174;42.688;23.344;2023-04-21T08:29:13;94848.66;;;19.51;41.53
20027;BME280;10174;42.688;23.344;2023-04-21T08:31:38;94939.03;;;20.46;40.25
20027;BME280;10174;42.688;23.344;2023-04-21T08:34:03;94922.41;;;21.18;39.19
20027;BME280;10174;42.688;23.344;2023-04-21T08:36:29;94930.25;;;22.35;37.01
20027;BME280;10174;42.688;23.344;2023-04-21T08:38:55;94936.97;;;21.72;36.86
20027;BME280;10174;42.688;23.344;2023-04-21T08:41:21;94925.81;;;19.94;40.23
20027;BME280;10174;42.688;23.344;2023-04-21T08:43:47;94913.28;;;21.39;38.55
20027;BME280;10174;42.688;23.344;2023-04-21T08:46:13;94905.63;;;22.35;36.12
20027;BME280;10174;42.688;23.344;2023-04-21T08:48:40;94917.59;;;21.77;37.52
20027;BME280;10174;42.688;23.344;2023-04-21T08:51:07;94890.66;;;23.05;35.78
20027;BME280;10174;42.688;23.344;2023-04-21T08:53:36;94919.84;;;22.00;36.50
20027;BME280;10174;42.688;23.344;2023-04-21T08:56:03;94924.44;;;21.71;37.21
20027;BME280;10174;42.688;23.344;2023-04-21T08:58:28;94912.47;;;20.56;39.25
20027;BME280;10174;42.688;23.344;2023-04-21T09:00:54;94916.94;;;22.62;36.26
20027;BME280;10174;42.688;23.344;2023-04-21T09:03:26;94907.13;;;23.37;35.17
20027;BME280;10174;42.688;23.344;2023-04-21T09:06:18;94915.47;;;22.96;34.68
20027;BME280;10174;42.688;23.344;2023-04-21T09:08:52;94878.63;;;22.33;35.71
20027;BME280;10174;42.688;23.344;2023-04-21T09:11:20;94913.34;;;22.45;36.16
20027;BME280;10174;42.688;23.344;2023-04-21T09:13:46;94890.28;;;21.03;37.95
20027;BME280;10174;42.688;23.344;2023-04-21T09:16:16;94896.53;;;22.18;35.50
20027;BME280;10174;42.688;23.344;2023-04-21T09:18:42;94904.59;;;20.21;38.80
20027;BME280;10174;42.688;23.344;2023-04-21T09:21:16;94904.66;;;18.45;42.86
20027;BME280;10174;42.688;23.344;2023-04-21T09:23:47;94894.88;;;17.31;45.14
20027;BME280;10174;42.688;23.344;2023-04-21T09:26:13;94878.44;;;17.44;44.38
20027;BME280;10174;42.688;23.344;2023-04-21T09:28:44;94768.06;;;17.05;44.84
20027;BME280;10174;42.688;23.344;2023-04-21T09:31:19;94861.81;;;18.33;43.22
20027;BME280;10174;42.688;23.344;2023-04-21T09:33:52;94888.22;;;18.42;41.94
20027;BME280;10174;42.688;23.344;2023-04-21T09:36:23;94804.16;;;18.96;39.59
20027;BME280;10174;42.688;23.344;2023-04-21T09:38:55;94894.81;;;18.88;40.65
20027;BME280;10174;42.688;23.344;2023-04-21T09:41:21;94887.22;;;20.59;36.94
20027;BME280;10174;42.688;23.344;2023-04-21T09:43:47;94835.69;;;21.15;35.89
20027;BME280;10174;42.688;23.344;2023-04-21T09:46:15;94829.91;;;20.01;36.11
20027;BME280;10174;42.688;23.344;2023-04-21T09:48:43;94856.19;;;19.33;38.57
20027;BME280;10174;42.688;23.344;2023-04-21T09:51:10;94812.09;;;18.24;41.40
20027;BME280;10174;42.688;23.344;2023-04-21T09:53:38;94867.72;;;18.44;41.25
20027;BME280;10174;42.688;23.344;2023-04-21T09:56:05;94849.66;;;19.47;38.92
20027;BME280;10174;42.688;23.344;2023-04-21T09:58:40;94771.84;;;19.46;38.91
20027;BME280;10174;42.688;23.344;2023-04-21T10:01:08;94859.63;;;20.60;37.13
20027;BME280;10174;42.688;23.344;2023-04-21T10:03:34;94846.91;;;19.98;38.92
20027;BME280;10174;42.688;23.344;2023-04-21T10:06:02;94864.97;;;19.60;39.54
20027;BME280;10174;42.688;23.344;2023-04-21T10:08:28;94761.94;;;18.13;39.79
20027;BME280;10174;42.688;23.344;2023-04-21T10:10:54;94811.19;;;17.68;41.48
20027;BME280;10174;42.688;23.344;2023-04-21T10:13:20;94863.97;;;18.66;41.45
20027;BME280;10174;42.688;23.344;2023-04-21T10:15:46;94838.63;;;18.92;41.25
20027;BME280;10174;42.688;23.344;2023-04-21T10:18:22;94854.06;;;18.71;42.04
20027;BME280;10174;42.688;23.344;2023-04-21T10:21:09;94865.13;;;18.57;43.12
20027;BME280;10174;42.688;23.344;2023-04-21T10:23:36;94862.38;;;19.43;41.85
20027;BME280;10174;42.688;23.344;2023-04-21T10:26:04;94846.28;;;19.71;40.42
20027;BME280;10174;42.688;23.344;2023-04-21T10:31:27;94831.97;;;17.46;44.65
20027;BME280;10174;42.688;23.344;2023-04-21T10:34:14;94864.56;;;17.46;45.13
20027;BME280;10174;42.688;23.344;2023-04-21T10:39:27;94858.41;;;17.14;46.68
20027;BME280;10174;42.688;23.344;2023-04-21T10:41:57;94858.50;;;18.19;44.92
20027;BME280;10174;42.688;23.344;2023-04-21T10:44:23;94825.63;;;19.91;41.90
20027;BME280;10174;42.688;23.344;2023-04-21T10:46:51;94738.00;;;20.01;38.81
20027;BME280;10174;42.688;23.344;2023-04-21T10:49:29;94840.31;;;20.78;37.53
20027;BME280;10174;42.688;23.344;2023-04-21T10:54:24;94834.25;;;20.14;38.11
20027;BME280;10174;42.688;23.344;2023-04-21T10:56:51;94829.94;;;20.13;37.01
20027;BME280;10174;42.688;23.344;2023-04-21T10:59:17;94853.19;;;21.14;35.82
20027;BME280;10174;42.688;23.344;2023-04-21T11:01:43;94816.09;;;21.01;33.12
20027;BME280;10174;42.688;23.344;2023-04-21T11:04:18;94845.34;;;20.42;35.84
20027;BME280;10174;42.688;23.344;2023-04-21T11:07:10;94841.47;;;19.98;36.29
20027;BME280;10174;42.688;23.344;2023-04-21T11:09:37;94857.44;;;19.87;37.72
20027;BME280;10174;42.688;23.344;2023-04-21T11:12:05;94769.59;;;18.97;39.67
20027;BME280;10174;42.688;23.344;2023-04-21T11:14:35;94828.00;;;19.29;41.62
20027;BME280;10174;42.688;23.344;2023-04-21T11:17:01;94843.94;;;18.80;43.86
20027;BME280;10174;42.688;23.344;2023-04-21T11:19:27;94793.75;;;18.12;45.41
20027;BME280;10174;42.688;23.344;2023-04-21T11:21:53;94833.75;;;19.79;43.14
20027;BME280;10174;42.688;23.344;2023-04-21T11:24:22;94832.41;;;20.39;41.26
20027;BME280;10174;42.688;23.344;2023-04-21T11:26:48;94739.03;;;19.21;42.19
20027;BME280;10174;42.688;23.344;2023-04-21T11:29:14;94827.44;;;19.15;42.99
20027;BME280;10174;42.688;23.344;2023-04-21T11:31:41;94727.47;;;18.43;42.59
20027;BME280;10174;42.688;23.344;2023-04-21T11:34:08;94821.69;;;18.30;44.30
20027;BME280;10174;42.688;23.344;2023-04-21T11:36:40;94850.66;;;18.26;45.41
20027;BME280;10174;42.688;23.344;2023-04-21T11:39:07;94858.78;;;17.39;47.51
20027;BME280;10174;42.688;23.344;2023-04-21T11:41:35;94840.28;;;17.41;47.56
20027;BME280;10174;42.688;23.344;2023-04-21T11:44:01;94761.03;;;17.04;47.11
20027;BME280;10174;42.688;23.344;2023-04-21T11:46:27;94856.31;;;17.02;48.79
20027;BME280;10174;42.688;23.344;2023-04-21T11:48:59;94850.97;;;17.46;46.25
20027;BME280;10174;42.688;23.344;2023-04-21T11:51:25;94830.53;;;17.84;45.79
20027;BME280;10174;42.688;23.344;2023-04-21T11:53:52;94837.97;;;18.48;43.15
20027;BME280;10174;42.688;23.344;2023-04-21T11:56:19;94814.75;;;18.50;41.02
20027;BME280;10174;42.688;23.344;2023-04-21T11:58:48;94501.75;;;16.50;40.77
20027;BME280;10174;42.688;23.344;2023-04-21T12:01:14;94807.69;;;17.93;40.19
20027;BME280;10174;42.688;23.344;2023-04-21T12:03:40;94829.72;;;17.83;40.11
20027;BME280;10174;42.688;23.344;2023-04-21T12:06:06;94838.06;;;17.78;41.15
20027;BME280;10174;42.688;23.344;2023-04-21T12:08:31;94849.56;;;18.10;41.89
20027;BME280;10174;42.688;23.344;2023-04-21T12:10:57;94803.03;;;17.33;43.25
20027;BME280;10174;42.688;23.344;2023-04-21T12:13:28;94843.94;;;17.80;42.66
20027;BME280;10174;42.688;23.344;2023-04-21T12:15:54;94851.44;;;18.36;40.46
20027;BME280;10174;42.688;23.344;2023-04-21T12:18:20;94738.03;;;16.92;41.02
20027;BME280;10174;42.688;23.344;2023-04-21T12:20:52;94853.56;;;17.77;40.93
20027;BME280;10174;42.688;23.344;2023-04-21T12:23:17;94845.22;;;17.39;42.21
20027;BME280;10174;42.688;23.344;2023-04-21T12:25:47;94813.59;;;17.25;42.45
20027;BME280;10174;42.688;23.344;2023-04-21T12:28:14;94861.38;;;17.44;43.01
20027;BME280;10174;42.688;23.344;2023-04-21T12:30:41;94858.78;;;17.39;42.98
20027;BME280;10174;42.688;23.344;2023-04-21T12:33:07;94853.03;;;17.40;42.84
20027;BME280;10174;42.688;23.344;2023-04-21T12:35:32;94839.00;;;17.47;43.10
20027;BME280;10174;42.688;23.344;2023-04-21T12:37:58;94814.41;;;17.52;42.16
20027;BME280;10174;42.688;23.344;2023-04-21T12:40:23;94831.34;;;17.49;42.31
20027;BME280;10174;42.688;23.344;2023-04-21T12:42:49;94855.47;;;18.03;42.15
20027;BME280;10174;42.688;23.344;2023-04-21T12:45:15;94826.53;;;17.81;41.69
20027;BME280;10174;42.688;23.344;2023-04-21T12:47:40;94851.16;;;17.76;42.58
20027;BME280;10174;42.688;23.344;2023-04-21T12:50:07;94820.00;;;17.65;40.75
20027;BME280;10174;42.688;23.344;2023-04-21T12:52:32;94775.59;;;17.34;42.66
20027;BME280;10174;42.688;23.344;2023-04-21T12:54:57;94825.25;;;17.52;43.84
20027;BME280;10174;42.688;23.344;2023-04-21T12:57:23;94829.41;;;17.58;44.55